createdAt,value
2022-07-28T00:00:54.677Z,16.79999924
2022-07-28T00:02:01.588Z,16.79000092
2022-07-28T00:02:54.026Z,16.78000069
2022-07-28T00:03:55.622Z,16.78000069
2022-07-28T00:04:50.096Z,16.77000046
2022-07-28T00:05:52.529Z,16.78000069
2022-07-28T00:06:46.814Z,16.79000092
2022-07-28T00:07:46.976Z,16.77000046
2022-07-28T00:08:49.189Z,16.72999954
2022-07-28T00:09:50.187Z,16.70000076
2022-07-28T00:11:25.216Z,16.79999924
2022-07-28T00:13:27.898Z,17.32999992
2022-07-28T00:14:26.238Z,17.37999916
2022-07-28T00:16:09.972Z,17.34000015
2022-07-28T00:16:49.381Z,17.29999924
2022-07-28T00:17:48.606Z,17.27000046
2022-07-28T00:18:50.203Z,17.19000053
2022-07-28T00:19:46.361Z,17.14999962
2022-07-28T00:20:45.526Z,17.06999969
2022-07-28T00:22:41.083Z,16.96999931
2022-07-28T00:23:39.400Z,16.93000031
2022-07-28T00:24:39.331Z,16.87000084
2022-07-28T00:25:39.174Z,16.84000015
2022-07-28T00:26:38.726Z,16.81999969
2022-07-28T00:28:39.851Z,16.73999977
2022-07-28T00:29:49.256Z,16.70000076
2022-07-28T00:29:50.226Z,16.70000076
2022-07-28T00:29:50.989Z,16.70000076
2022-07-28T00:30:36.416Z,16.70999908
2022-07-28T00:31:38.542Z,16.75
2022-07-28T00:32:30.070Z,16.75
2022-07-28T00:33:29.146Z,16.73999977
2022-07-28T00:34:26.623Z,16.72999954
2022-07-28T00:35:30.298Z,16.67000008
2022-07-28T00:35:30.964Z,16.67000008
2022-07-28T00:36:24.726Z,16.67000008
2022-07-28T00:37:17.838Z,16.69000053
2022-07-28T00:38:17.007Z,16.69000053
2022-07-28T00:39:13.660Z,16.64999962
2022-07-28T00:40:13.224Z,16.63999939
2022-07-28T00:41:14.981Z,16.61000061
2022-07-28T00:42:15.661Z,16.61000061
2022-07-28T00:43:11.031Z,16.56999969
2022-07-28T00:44:14.249Z,16.54999924
2022-07-28T00:45:16.259Z,16.51000023
2022-07-28T00:46:08.140Z,16.51000023
2022-07-28T00:47:09.306Z,16.51000023
2022-07-28T00:48:01.921Z,16.5
2022-07-28T00:49:01.640Z,16.48999977
2022-07-28T00:49:57.043Z,16.45999908
2022-07-28T00:51:00.287Z,16.45000076
2022-07-28T00:52:55.870Z,16.42000008
2022-07-28T00:53:55.791Z,16.40999985
2022-07-28T00:54:54.191Z,16.39999962
2022-07-28T00:56:05.483Z,16.37999916
2022-07-28T00:56:05.996Z,16.37999916
2022-07-28T00:56:06.085Z,16.37999916
2022-07-28T00:56:51.457Z,16.39999962
2022-07-28T00:57:47.571Z,16.45000076
2022-07-28T00:58:45.673Z,16.44000053
2022-07-28T00:59:49.409Z,16.43000031
2022-07-28T01:01:15.035Z,16.38999939
2022-07-28T01:01:55.565Z,16.45000076
2022-07-28T01:02:56.757Z,16.44000053
2022-07-28T01:03:56.449Z,16.44000053
2022-07-28T01:04:57.395Z,16.40999985
2022-07-28T01:06:00.702Z,16.38999939
2022-07-28T01:07:57.828Z,16.34000015
2022-07-28T01:08:56.954Z,16.31999969
2022-07-28T01:09:57.358Z,16.29000092
2022-07-28T01:10:52.456Z,16.26000023
2022-07-28T01:11:55.368Z,16.28000069
2022-07-28T01:12:52.340Z,16.29000092
2022-07-28T01:13:52.710Z,16.27000046
2022-07-28T01:14:49.014Z,16.25
2022-07-28T01:15:51.181Z,16.25
2022-07-28T01:17:52.665Z,16.22999954
2022-07-28T01:18:48.886Z,16.22999954
2022-07-28T01:19:51.731Z,16.21999931
2022-07-28T01:20:48.022Z,16.22999954
2022-07-28T01:22:43.042Z,16.20000076
2022-07-28T01:23:53.147Z,16.18000031
2022-07-28T01:24:55.856Z,16.15999985
2022-07-28T01:25:49.987Z,16.15999985
2022-07-28T01:27:49.581Z,16.19000053
2022-07-28T01:28:51.836Z,16.12999916
2022-07-28T01:29:46.027Z,16.12999916
2022-07-28T01:30:47.890Z,16.12999916
2022-07-28T01:31:40.699Z,16.15999985
2022-07-28T01:32:45.250Z,16.17000008
2022-07-28T01:33:45.315Z,16.14999962
2022-07-28T01:34:42.143Z,16.12999916
2022-07-28T01:35:49.571Z,16.12000084
2022-07-28T01:36:40.010Z,16.13999939
2022-07-28T01:38:39.534Z,16.15999985
2022-07-28T01:39:35.412Z,16.14999962
2022-07-28T01:40:35.961Z,16.12999916
2022-07-28T01:42:06.585Z,16.12999916
2022-07-28T01:42:47.556Z,16.14999962
2022-07-28T01:43:53.232Z,16.20999908
2022-07-28T01:44:50.715Z,16.19000053
2022-07-28T01:45:51.172Z,16.15999985
2022-07-28T01:48:08.360Z,16.13999939
2022-07-28T01:48:48.422Z,16.13999939
2022-07-28T01:49:50.333Z,16.14999962
2022-07-28T01:50:51.882Z,16.14999962
2022-07-28T01:51:47.142Z,16.13999939
2022-07-28T01:52:47.894Z,16.12000084
2022-07-28T01:53:44.261Z,16.09000015
2022-07-28T01:54:44.102Z,16.09000015
2022-07-28T01:55:46.913Z,16.04000092
2022-07-28T01:57:43.503Z,16.03000069
2022-07-28T01:58:48.346Z,16
2022-07-28T01:59:43.668Z,15.97999954
2022-07-28T02:00:46.657Z,15.97999954
2022-07-28T02:02:45.171Z,16.01000023
2022-07-28T02:03:41.424Z,16
2022-07-28T02:04:49.153Z,15.98999977
2022-07-28T02:05:45.462Z,15.97999954
2022-07-28T02:06:45.066Z,15.97999954
2022-07-28T02:07:44.234Z,15.93999958
2022-07-28T02:08:43.342Z,15.92000008
2022-07-28T02:09:39.664Z,15.89999962
2022-07-28T02:10:42.599Z,15.90999985
2022-07-28T02:11:40.299Z,15.94999981
2022-07-28T02:12:36.516Z,15.96000004
2022-07-28T02:13:38.703Z,15.93999958
2022-07-28T02:14:31.294Z,15.93000031
2022-07-28T02:15:36.504Z,15.92000008
2022-07-28T02:16:29.168Z,15.89999962
2022-07-28T02:17:27.393Z,15.86999989
2022-07-28T02:18:31.610Z,15.81999969
2022-07-28T02:19:33.562Z,15.77000046
2022-07-28T02:20:26.207Z,15.75
2022-07-28T02:21:23.387Z,15.72999954
2022-07-28T02:23:19.600Z,15.73999977
2022-07-28T02:24:19.031Z,15.72000027
2022-07-28T02:25:22.038Z,15.69999981
2022-07-28T02:26:24.627Z,15.69999981
2022-07-28T02:28:42.546Z,15.68999958
2022-07-28T02:29:50.671Z,15.68000031
2022-07-28T02:29:50.863Z,15.68000031
2022-07-28T02:29:51.821Z,15.68000031
2022-07-28T02:30:34.430Z,15.71000004
2022-07-28T02:32:49.207Z,15.72999954
2022-07-28T02:33:59.143Z,15.71000004
2022-07-28T02:33:59.352Z,15.71000004
2022-07-28T02:34:00.370Z,15.71000004
2022-07-28T02:34:46.748Z,15.72999954
2022-07-28T02:35:43.031Z,15.75
2022-07-28T02:36:43.719Z,15.76000023
2022-07-28T02:38:43.489Z,15.75
2022-07-28T02:39:38.811Z,15.72999954
2022-07-28T02:40:38.793Z,15.69999981
2022-07-28T02:41:36.775Z,15.68000031
2022-07-28T02:43:49.631Z,15.69999981
2022-07-28T02:43:49.679Z,15.69999981
2022-07-28T02:44:41.470Z,15.72000027
2022-07-28T02:45:41.836Z,15.72999954
2022-07-28T02:46:38.346Z,15.72000027
2022-07-28T02:48:39.624Z,15.60000038
2022-07-28T02:49:39.712Z,15.52999973
2022-07-28T02:50:35.602Z,15.52000046
2022-07-28T02:51:37.780Z,15.48999977
2022-07-28T02:52:36.120Z,15.47999954
2022-07-28T02:53:45.431Z,15.44999981
2022-07-28T02:54:40.754Z,15.43000031
2022-07-28T02:55:38.244Z,15.42000008
2022-07-28T02:56:37.956Z,15.43000031
2022-07-28T02:57:36.772Z,15.43000031
2022-07-28T02:58:33.317Z,15.39999962
2022-07-28T02:59:41.512Z,15.39000034
2022-07-28T03:00:34.423Z,15.32999992
2022-07-28T03:01:39.461Z,15.35000038
2022-07-28T03:03:46.806Z,15.28999996
2022-07-28T03:04:47.173Z,15.25
2022-07-28T03:06:41.526Z,15.30000019
2022-07-28T03:07:24.735Z,15.35999966
2022-07-28T03:08:33.067Z,15.35000038
2022-07-28T03:09:35.952Z,15.32999992
2022-07-28T03:10:32.975Z,15.27999973
2022-07-28T03:11:28.626Z,15.27999973
2022-07-28T03:13:27.731Z,15.23999977
2022-07-28T03:14:24.956Z,15.22000027
2022-07-28T03:15:28.518Z,15.18000031
2022-07-28T03:16:23.882Z,15.14000034
2022-07-28T03:17:23.022Z,15.21000004
2022-07-28T03:18:24.309Z,15.18999958
2022-07-28T03:19:20.982Z,15.15999985
2022-07-28T03:20:17.869Z,15.14999962
2022-07-28T03:21:23.496Z,15.09000015
2022-07-28T03:23:20.588Z,15.10999966
2022-07-28T03:24:23.130Z,15.07999992
2022-07-28T03:25:24.784Z,15.05000019
2022-07-28T03:26:20.979Z,15.06000042
2022-07-28T03:28:17.770Z,15.09000015
2022-07-28T03:29:16.732Z,15.06999969
2022-07-28T03:30:20.539Z,15.05000019
2022-07-28T03:31:20.577Z,15.03999996
2022-07-28T03:33:23.193Z,15.02999973
2022-07-28T03:34:23.590Z,15.03999996
2022-07-28T03:35:19.311Z,15.01000023
2022-07-28T03:36:17.477Z,14.98999977
2022-07-28T03:37:18.504Z,15
2022-07-28T03:38:12.733Z,15.01000023
2022-07-28T03:39:15.009Z,15.01000023
2022-07-28T03:40:07.355Z,15.01000023
2022-07-28T03:41:09.910Z,15.01000023
2022-07-28T03:43:07.045Z,15.02999973
2022-07-28T03:44:01.785Z,15.02999973
2022-07-28T03:44:57.933Z,15.02000046
2022-07-28T03:46:22.246Z,15.02999973
2022-07-28T03:48:04.359Z,15.02999973
2022-07-28T03:49:00.733Z,15.02000046
2022-07-28T03:50:02.693Z,15.02000046
2022-07-28T03:50:58.101Z,14.97999954
2022-07-28T03:51:59.800Z,15.01000023
2022-07-28T03:52:55.155Z,15.02000046
2022-07-28T03:54:02.814Z,14.97000027
2022-07-28T03:54:57.195Z,14.97000027
2022-07-28T03:55:55.877Z,14.97999954
2022-07-28T03:58:00.661Z,14.97000027
2022-07-28T03:58:55.779Z,14.96000004
2022-07-28T03:59:58.324Z,14.94999981
2022-07-28T04:00:52.027Z,14.94999981
2022-07-28T04:02:48.723Z,14.97999954
2022-07-28T04:03:48.097Z,14.93999958
2022-07-28T04:04:53.675Z,14.89000034
2022-07-28T04:05:48.995Z,14.86999989
2022-07-28T04:07:49.346Z,14.86999989
2022-07-28T04:08:45.038Z,14.85000038
2022-07-28T04:09:51.109Z,14.82999992
2022-07-28T04:10:46.204Z,14.84000015
2022-07-28T04:11:50.984Z,14.86999989
2022-07-28T04:12:50.929Z,14.82999992
2022-07-28T04:13:56.244Z,14.77999973
2022-07-28T04:14:57.064Z,14.73999977
2022-07-28T04:15:57.975Z,14.67000008
2022-07-28T04:18:03.507Z,14.68999958
2022-07-28T04:18:56.228Z,14.67000008
2022-07-28T04:19:57.154Z,14.68000031
2022-07-28T04:21:41.482Z,14.77000046
2022-07-28T04:22:22.591Z,14.85999966
2022-07-28T04:23:21.669Z,14.86999989
2022-07-28T04:24:22.023Z,14.84000015
2022-07-28T04:25:22.166Z,14.82999992
2022-07-28T04:26:24.295Z,14.81999969
2022-07-28T04:28:26.349Z,14.81999969
2022-07-28T04:29:23.260Z,14.81000042
2022-07-28T04:30:18.170Z,14.81000042
2022-07-28T04:31:20.311Z,14.81999969
2022-07-28T04:33:26.273Z,14.81999969
2022-07-28T04:34:22.158Z,14.81999969
2022-07-28T04:35:21.338Z,14.81999969
2022-07-28T04:36:17.380Z,14.81999969
2022-07-28T04:37:16.357Z,14.81999969
2022-07-28T04:38:11.768Z,14.81999969
2022-07-28T04:39:10.970Z,14.82999992
2022-07-28T04:40:06.952Z,14.84000015
2022-07-28T04:41:05.762Z,14.78999996
2022-07-28T04:42:01.172Z,14.82999992
2022-07-28T04:43:02.651Z,14.78999996
2022-07-28T04:43:55.202Z,14.81000042
2022-07-28T04:44:58.447Z,14.78999996
2022-07-28T04:45:53.871Z,14.78999996
2022-07-28T04:46:49.983Z,14.84000015
2022-07-28T04:47:46.809Z,14.85999966
2022-07-28T04:48:49.514Z,14.85999966
2022-07-28T04:49:45.296Z,14.88000011
2022-07-28T04:50:47.835Z,14.89000034
2022-07-28T04:51:40.342Z,14.90999985
2022-07-28T04:53:37.264Z,14.96000004
2022-07-28T04:54:40.176Z,14.96000004
2022-07-28T04:56:06.827Z,14.97999954
2022-07-28T04:56:46.928Z,15.02999973
2022-07-28T04:58:43.063Z,15.05000019
2022-07-28T04:59:40.269Z,15.05000019
2022-07-28T05:00:40.488Z,15.03999996
2022-07-28T05:01:35.828Z,14.97999954
2022-07-28T05:03:36.413Z,14.94999981
2022-07-28T05:04:30.345Z,14.93999958
2022-07-28T05:05:28.998Z,14.93000031
2022-07-28T05:06:28.835Z,14.92000008
2022-07-28T05:08:27.630Z,14.94999981
2022-07-28T05:09:20.127Z,14.94999981
2022-07-28T05:10:17.657Z,14.97000027
2022-07-28T05:11:16.746Z,14.96000004
2022-07-28T05:13:16.867Z,15
2022-07-28T05:14:23.610Z,15.01000023
2022-07-28T05:15:18.933Z,15.03999996
2022-07-28T05:16:18.373Z,15.03999996
2022-07-28T05:17:13.705Z,15.10000038
2022-07-28T05:18:18.338Z,15.09000015
2022-07-28T05:19:21.910Z,15.10999966
2022-07-28T05:20:16.194Z,15.14000034
2022-07-28T05:21:22.422Z,15.14000034
2022-07-28T05:22:14.495Z,15.22000027
2022-07-28T05:23:14.704Z,15.22999954
2022-07-28T05:24:09.948Z,15.22000027
2022-07-28T05:25:09.463Z,15.21000004
2022-07-28T05:26:05.625Z,15.22000027
2022-07-28T05:28:02.624Z,15.22999954
2022-07-28T05:29:02.440Z,15.23999977
2022-07-28T05:29:57.150Z,15.23999977
2022-07-28T05:30:58.195Z,15.25
2022-07-28T05:32:57.770Z,15.28999996
2022-07-28T05:33:51.287Z,15.26000023
2022-07-28T05:34:50.797Z,15.22000027
2022-07-28T05:35:45.988Z,15.23999977
2022-07-28T05:36:47.995Z,15.27999973
2022-07-28T05:39:42.898Z,15.42000008
2022-07-28T05:40:24.555Z,15.48999977
2022-07-28T05:41:23.823Z,15.55000019
2022-07-28T05:43:25.149Z,15.51000023
2022-07-28T05:44:26.374Z,15.5
2022-07-28T05:45:25.417Z,15.51000023
2022-07-28T05:46:26.436Z,15.51000023
2022-07-28T05:47:26.720Z,15.56999969
2022-07-28T05:48:27.888Z,15.57999992
2022-07-28T05:49:24.326Z,15.56999969
2022-07-28T05:50:27.996Z,15.55000019
2022-07-28T05:51:22.210Z,15.53999996
2022-07-28T05:52:24.012Z,15.59000015
2022-07-28T05:53:20.567Z,15.57999992
2022-07-28T05:54:22.155Z,15.60000038
2022-07-28T05:55:18.528Z,15.56999969
2022-07-28T05:56:20.234Z,15.56999969
2022-07-28T05:57:16.790Z,15.63000011
2022-07-28T05:58:18.179Z,15.61999989
2022-07-28T05:59:14.594Z,15.64000034
2022-07-28T06:00:18.816Z,15.64999962
2022-07-28T06:01:13.032Z,15.64000034
2022-07-28T06:03:11.628Z,15.67000008
2022-07-28T06:04:26.889Z,15.65999985
2022-07-28T06:04:27.921Z,15.65999985
2022-07-28T06:04:28.574Z,15.65999985
2022-07-28T06:05:14.687Z,15.68999958
2022-07-28T06:06:16.266Z,15.72000027
2022-07-28T06:06:16.954Z,15.72000027
2022-07-28T06:08:09.596Z,15.71000004
2022-07-28T06:08:46.802Z,15.68999958
2022-07-28T06:09:46.863Z,15.68999958
2022-07-28T06:10:43.368Z,15.68000031
2022-07-28T06:11:44.748Z,15.63000011
2022-07-28T06:13:40.297Z,15.57999992
2022-07-28T06:14:41.639Z,15.55000019
2022-07-28T06:16:18.643Z,15.57999992
2022-07-28T06:17:56.458Z,15.69999981
2022-07-28T06:18:55.649Z,15.67000008
2022-07-28T06:19:53.525Z,15.68000031
2022-07-28T06:20:48.838Z,15.68999958
2022-07-28T06:21:48.451Z,15.72000027
2022-07-28T06:23:43.462Z,15.78999996
2022-07-28T06:24:38.797Z,15.81000042
2022-07-28T06:25:38.753Z,15.82999992
2022-07-28T06:26:35.452Z,15.85000038
2022-07-28T06:27:37.937Z,15.86999989
2022-07-28T06:28:30.605Z,15.89999962
2022-07-28T06:29:33.473Z,15.93999958
2022-07-28T06:30:26.071Z,15.97000027
2022-07-28T06:31:26.135Z,16.02000046
2022-07-28T06:32:22.310Z,16.09000015
2022-07-28T06:33:21.527Z,16.11000061
2022-07-28T06:34:17.215Z,16.12999916
2022-07-28T06:35:17.284Z,16.11000061
2022-07-28T06:36:13.488Z,16.15999985
2022-07-28T06:38:10.892Z,16.20000076
2022-07-28T06:39:06.514Z,16.23999977
2022-07-28T06:40:05.832Z,16.25
2022-07-28T06:41:01.003Z,16.29000092
2022-07-28T06:41:58.498Z,16.29000092
2022-07-28T06:42:58.751Z,16.28000069
2022-07-28T06:43:54.658Z,16.28000069
2022-07-28T06:44:59.023Z,16.32999992
2022-07-28T06:44:59.878Z,16.32999992
2022-07-28T06:45:55.968Z,16.34000015
2022-07-28T06:46:49.032Z,16.38999939
2022-07-28T06:49:29.640Z,16.54000092
2022-07-28T06:50:24.863Z,16.60000038
2022-07-28T06:50:26.446Z,16.60000038
2022-07-28T06:51:11.303Z,16.69000053
2022-07-28T06:52:07.408Z,16.79999924
2022-07-28T06:53:07.484Z,16.79999924
2022-07-28T06:54:11.046Z,16.82999992
2022-07-28T06:55:03.130Z,16.85000038
2022-07-28T06:56:03.915Z,16.88999939
2022-07-28T06:57:01.650Z,16.93000031
2022-07-28T06:58:05.115Z,16.92000008
2022-07-28T06:58:58.486Z,16.96999931
2022-07-28T06:59:59.270Z,16.98999977
2022-07-28T07:00:55.564Z,16.98999977
2022-07-28T07:01:56.095Z,17.01000023
2022-07-28T07:02:52.224Z,17.04000092
2022-07-28T07:03:51.621Z,17.04999924
2022-07-28T07:04:53.535Z,17.10000038
2022-07-28T07:05:49.037Z,17.12999916
2022-07-28T07:06:48.110Z,17.13999939
2022-07-28T07:07:44.310Z,17.13999939
2022-07-28T07:08:45.053Z,17.15999985
2022-07-28T07:09:43.580Z,17.15999985
2022-07-28T07:10:39.734Z,17.10000038
2022-07-28T07:11:42.816Z,17.13999939
2022-07-28T07:13:37.139Z,17.18000031
2022-07-28T07:14:33.643Z,17.23999977
2022-07-28T07:15:35.257Z,17.27000046
2022-07-28T07:16:31.508Z,17.35000038
2022-07-28T07:17:32.606Z,17.31999969
2022-07-28T07:18:28.981Z,17.35000038
2022-07-28T07:19:32.465Z,17.37999916
2022-07-28T07:20:27.725Z,17.43000031
2022-07-28T07:21:28.498Z,17.45999908
2022-07-28T07:23:26.035Z,17.53000069
2022-07-28T07:24:22.755Z,17.56999969
2022-07-28T07:25:26.808Z,17.63999939
2022-07-28T07:26:21.102Z,17.70000076
2022-07-28T07:28:18.996Z,17.82999992
2022-07-28T07:29:20.593Z,17.82999992
2022-07-28T07:30:17.786Z,17.87999916
2022-07-28T07:31:21.875Z,17.94000053
2022-07-28T07:33:40.682Z,18.04000092
2022-07-28T07:34:21.105Z,18.10000038
2022-07-28T07:35:20.931Z,18.18000031
2022-07-28T07:36:21.222Z,18.29000092
2022-07-28T07:37:17.691Z,18.32999992
2022-07-28T07:38:19.033Z,18.38999939
2022-07-28T07:39:15.479Z,18.45000076
2022-07-28T07:40:17.011Z,18.53000069
2022-07-28T07:41:14.162Z,18.60000038
2022-07-28T07:42:15.053Z,18.63999939
2022-07-28T07:43:11.568Z,18.70000076
2022-07-28T07:44:16.164Z,18.72999954
2022-07-28T07:45:10.130Z,18.79999924
2022-07-28T07:46:11.787Z,18.79999924
2022-07-28T07:48:10.034Z,18.92000008
2022-07-28T07:49:07.719Z,18.93000031
2022-07-28T07:50:09.543Z,18.95000076
2022-07-28T07:51:15.030Z,19
2022-07-28T07:51:15.610Z,19
2022-07-28T07:53:08.004Z,19.01000023
2022-07-28T07:54:05.306Z,19.12000084
2022-07-28T07:55:06.559Z,19.14999962
2022-07-28T07:56:06.521Z,19.23999977
2022-07-28T07:58:05.665Z,19.30999947
2022-07-28T07:59:02.596Z,19.35000038
2022-07-28T08:00:07.069Z,19.42000008
2022-07-28T08:01:02.144Z,19.45000076
2022-07-28T08:02:03.501Z,19.5
2022-07-28T08:03:00.145Z,19.56999969
2022-07-28T08:04:01.926Z,19.57999992
2022-07-28T08:04:58.978Z,19.56999969
2022-07-28T08:06:00.825Z,19.52000046
2022-07-28T08:08:00.052Z,19.55999947
2022-07-28T08:08:57.142Z,19.62000084
2022-07-28T08:09:59.456Z,19.64999962
2022-07-28T08:10:56.691Z,19.72999954
2022-07-28T08:12:01.173Z,19.75
2022-07-28T08:14:00.469Z,19.90999985
2022-07-28T08:14:55.639Z,19.94000053
2022-07-28T08:16:00.231Z,19.97999954
2022-07-28T08:16:54.897Z,20
2022-07-28T08:17:57.044Z,20.07999992
2022-07-28T08:18:55.141Z,20.13999939
2022-07-28T08:19:56.653Z,20.13999939
2022-07-28T08:20:54.002Z,20.12000084
2022-07-28T08:21:56.289Z,20.14999962
2022-07-28T08:22:53.538Z,20.17000008
2022-07-28T08:23:55.788Z,20.14999962
2022-07-28T08:24:53.766Z,20.18000031
2022-07-28T08:25:58.274Z,20.21999931
2022-07-28T08:26:53.619Z,20.29000092
2022-07-28T08:29:36.585Z,20.45999908
2022-07-28T08:30:17.137Z,20.54000092
2022-07-28T08:30:23.174Z,20.54000092
2022-07-28T08:31:15.881Z,20.61000061
2022-07-28T08:32:16.727Z,20.62999916
2022-07-28T08:33:12.774Z,20.63999939
2022-07-28T08:34:26.386Z,20.65999985
2022-07-28T08:34:31.130Z,20.65999985
2022-07-28T08:35:32.412Z,20.65999985
2022-07-28T08:35:32.808Z,20.65999985
2022-07-28T08:35:33.049Z,20.65999985
2022-07-28T08:36:11.133Z,20.70000076
2022-07-28T08:37:07.692Z,20.75
2022-07-28T08:38:08.583Z,20.82999992
2022-07-28T08:39:05.278Z,20.80999947
2022-07-28T08:40:05.805Z,20.78000069
2022-07-28T08:41:02.003Z,20.79999924
2022-07-28T08:41:59.960Z,20.76000023
2022-07-28T08:43:00.588Z,20.70000076
2022-07-28T08:43:56.848Z,20.69000053
2022-07-28T08:44:57.045Z,20.72999954
2022-07-28T08:45:58.135Z,20.76000023
2022-07-28T08:45:58.744Z,20.76000023
2022-07-28T08:46:56.269Z,20.77000046
2022-07-28T08:48:50.827Z,20.78000069
2022-07-28T08:49:47.061Z,20.84000015
2022-07-28T08:50:45.598Z,20.85000038
2022-07-28T08:51:46.539Z,20.85000038
2022-07-28T08:53:43.554Z,20.87999916
2022-07-28T08:54:39.567Z,20.85000038
2022-07-28T08:55:42.923Z,20.87999916
2022-07-28T08:56:36.470Z,20.93000031
2022-07-28T08:58:35.514Z,21
2022-07-28T08:59:31.638Z,20.95000076
2022-07-28T09:00:34.817Z,20.97999954
2022-07-28T09:01:38.918Z,20.95999908
2022-07-28T09:01:38.946Z,20.95999908
2022-07-28T09:01:39.198Z,20.95999908
2022-07-28T09:03:33.356Z,21.04000092
2022-07-28T09:03:59.392Z,21.10000038
2022-07-28T09:05:00.463Z,21.17000008
2022-07-28T09:05:56.539Z,21.23999977
2022-07-28T09:06:56.805Z,21.20000076
2022-07-28T09:08:53.010Z,21.12000084
2022-07-28T09:09:48.696Z,21.07999992
2022-07-28T09:10:49.503Z,21.10000038
2022-07-28T09:11:45.115Z,21.07999992
2022-07-28T09:13:40.938Z,21.12000084
2022-07-28T09:14:41.677Z,21.12999916
2022-07-28T09:15:37.302Z,21.12000084
2022-07-28T09:16:37.833Z,21.03000069
2022-07-28T09:17:33.209Z,21
2022-07-28T09:18:33.659Z,20.95999908
2022-07-28T09:19:34.489Z,20.88999939
2022-07-28T09:20:29.976Z,20.87000084
2022-07-28T09:21:26.027Z,20.87999916
2022-07-28T09:23:42.158Z,20.84000015
2022-07-28T09:23:42.516Z,20.84000015
2022-07-28T09:23:43.342Z,20.84000015
2022-07-28T09:24:24.958Z,20.86000061
2022-07-28T09:25:18.279Z,20.85000038
2022-07-28T09:26:18.401Z,20.82999992
2022-07-28T09:28:14.168Z,20.79000092
2022-07-28T09:29:09.494Z,20.72999954
2022-07-28T09:30:09.735Z,20.73999977
2022-07-28T09:31:05.055Z,20.72999954
2022-07-28T09:32:03.063Z,20.68000031
2022-07-28T09:33:58.197Z,20.71999931
2022-07-28T09:34:58.431Z,20.65999985
2022-07-28T09:35:53.791Z,20.73999977
2022-07-28T09:36:56.644Z,20.78000069
2022-07-28T09:37:49.452Z,20.78000069
2022-07-28T09:38:52.339Z,20.79000092
2022-07-28T09:39:45.118Z,20.81999969
2022-07-28T09:40:48.170Z,20.86000061
2022-07-28T09:41:42.335Z,20.90999985
2022-07-28T09:43:37.351Z,20.95999908
2022-07-28T09:44:37.406Z,20.96999931
2022-07-28T09:45:35.503Z,20.95000076
2022-07-28T09:46:30.997Z,20.98999977
2022-07-28T09:48:26.483Z,21.03000069
2022-07-28T09:49:28.625Z,21.05999947
2022-07-28T09:51:06.463Z,21.14999962
2022-07-28T09:53:00.676Z,21.26000023
2022-07-28T09:53:41.128Z,21.29999924
2022-07-28T09:54:41.223Z,21.31999969
2022-07-28T09:55:39.713Z,21.36000061
2022-07-28T09:56:35.625Z,21.31999969
2022-07-28T09:58:33.631Z,21.20999908
2022-07-28T09:58:59.515Z,21.27000046
2022-07-28T09:59:57.429Z,21.42000008
2022-07-28T10:00:58.009Z,21.43000031
2022-07-28T10:01:53.620Z,21.38999939
2022-07-28T10:02:54.135Z,21.42000008
2022-07-28T10:03:49.438Z,21.42000008
2022-07-28T10:04:49.436Z,21.37999916
2022-07-28T10:05:44.916Z,21.29000092
2022-07-28T10:06:45.075Z,21.25
2022-07-28T10:07:40.352Z,21.25
2022-07-28T10:08:42.637Z,21.26000023
2022-07-28T10:09:35.253Z,21.28000069
2022-07-28T10:10:36.025Z,21.23999977
2022-07-28T10:11:31.296Z,21.23999977
2022-07-28T10:12:33.799Z,21.25
2022-07-28T10:13:26.746Z,21.20000076
2022-07-28T10:14:29.395Z,21.19000053
2022-07-28T10:15:31.182Z,21.20999908
2022-07-28T10:15:31.305Z,21.20999908
2022-07-28T10:16:20.604Z,21.21999931
2022-07-28T10:17:21.220Z,21.19000053
2022-07-28T10:18:16.634Z,21.11000061
2022-07-28T10:19:16.536Z,21.10000038
2022-07-28T10:20:11.752Z,21.11000061
2022-07-28T10:21:11.752Z,21.12999916
2022-07-28T10:22:07.156Z,21.12999916
2022-07-28T10:24:02.880Z,21.20999908
2022-07-28T10:25:02.853Z,21.19000053
2022-07-28T10:25:58.070Z,21.17000008
2022-07-28T10:26:58.164Z,21.19000053
2022-07-28T10:28:53.506Z,21.21999931
2022-07-28T10:29:48.730Z,21.22999954
2022-07-28T10:30:48.783Z,21.21999931
2022-07-28T10:31:44.261Z,21.19000053
2022-07-28T10:33:39.340Z,21.23999977
2022-07-28T10:34:42.134Z,21.23999977
2022-07-28T10:35:34.832Z,21.28000069
2022-07-28T10:35:51.015Z,21.28000069
2022-07-28T10:35:54.472Z,21.28000069
2022-07-28T10:36:35.671Z,21.28000069
2022-07-28T10:38:33.650Z,21.36000061
2022-07-28T10:39:26.379Z,21.39999962
2022-07-28T10:40:26.448Z,21.39999962
2022-07-28T10:41:21.723Z,21.40999985
2022-07-28T10:42:21.620Z,21.40999985
2022-07-28T10:43:18.267Z,21.38999939
2022-07-28T10:44:18.859Z,21.37000084
2022-07-28T10:46:04.472Z,21.37999916
2022-07-28T10:46:04.938Z,21.37999916
2022-07-28T10:46:05.549Z,21.37999916
2022-07-28T10:46:23.824Z,21.38999939
2022-07-28T10:48:25.599Z,21.42000008
2022-07-28T10:49:21.557Z,21.45999908
2022-07-28T10:50:17.300Z,21.43000031
2022-07-28T10:51:17.820Z,21.44000053
2022-07-28T10:53:12.291Z,21.47999954
2022-07-28T10:54:17.648Z,21.45999908
2022-07-28T10:54:18.933Z,21.45999908
2022-07-28T10:54:25.066Z,21.45999908
2022-07-28T10:55:13.745Z,21.47999954
2022-07-28T10:56:09.017Z,21.53000069
2022-07-28T10:57:09.169Z,21.52000046
2022-07-28T10:59:05.487Z,21.5
2022-07-28T11:00:12.140Z,21.38999939
2022-07-28T11:00:13.255Z,21.38999939
2022-07-28T11:00:14.317Z,21.38999939
2022-07-28T11:01:06.398Z,21.37999916
2022-07-28T11:02:01.261Z,21.40999985
2022-07-28T11:03:57.577Z,21.39999962
2022-07-28T11:04:53.064Z,21.40999985
2022-07-28T11:05:54.909Z,21.39999962
2022-07-28T11:06:50.444Z,21.38999939
2022-07-28T11:07:52.420Z,21.42000008
2022-07-28T11:08:48.015Z,21.42000008
2022-07-28T11:09:48.449Z,21.46999931
2022-07-28T11:10:45.220Z,21.48999977
2022-07-28T11:11:45.417Z,21.48999977
2022-07-28T11:12:41.274Z,21.45999908
2022-07-28T11:13:43.881Z,21.44000053
2022-07-28T11:14:38.110Z,21.47999954
2022-07-28T11:15:35.605Z,21.51000023
2022-07-28T11:16:39.370Z,21.53000069
2022-07-28T11:17:33.492Z,21.54000092
2022-07-28T11:18:33.017Z,21.54999924
2022-07-28T11:19:40.761Z,21.5
2022-07-28T11:19:40.774Z,21.5
2022-07-28T11:19:51.536Z,21.5
2022-07-28T11:20:30.197Z,21.54000092
2022-07-28T11:21:25.727Z,21.61000061
2022-07-28T11:21:39.454Z,21.61000061
2022-07-28T11:21:39.680Z,21.61000061
2022-07-28T11:22:27.285Z,21.64999962
2022-07-28T11:23:23.578Z,21.69000053
2022-07-28T11:23:30.370Z,21.69000053
2022-07-28T11:24:24.659Z,21.71999931